Kinney, Minnesota
Current Conditions -  °F | °C
As of 7:53 AM on Thursday 30 Oct 2014 (Local Time) from KHIB Reporting Station
Overcast Overcast  
Wind Chill: 31°   Ceiling: 1900
Heat Index: 36°   Visibility: 10mi
Dew Point: 31°   Wind: 6mph
Humidity: 82%   Direction: 350°N
Pressure: 30.05"   Gusts: NA
Location:  47.51°N, 92.73°W
Report Text: KHIB 301253Z AUTO 35005KT 10SM OVC019 02/M01 A3005 RMK AO2 SLP192 T00221006
Loading
Personal Weather Stations






























Interactive Weather Map
Tropical Storm Tracking
New forecast layout! Learn more

10-Day Weather Forecast

Advertisements
Track Severe Weather on mobile